Sodus, NY (14551)

7:28 AM EST on January 30, 2015 (GMT -0500)
Lyons | Change Station
CLOSE
Current Station
Personal Weather Station
Location: Lyons, NY
Elevation: 503 ft
Nearby Weather Stations
Active Advisory: Winter Weather Advisory

Elev 503 ft 43.14 °N, 77.00 °W | Updated 9 seconds ago

Snow
Snow
27.5 °F
Feels Like 21 °F
N
5.8
Wind Variable Wind from North
Gusts 5.8 mph

Today
High -- | Low -- °F
--% Chance of Precip.
Yesterday
High -- | Low -- °F
Precip. -- in
7:25 AM 5:17 PM
Waxing Gibbous, 82% visible
Pressure 29.96 in
Visibility 4.0 miles
Clouds Scattered Clouds 2400 ft
Overcast 3400 ft
Windchill 21 °F
Dew Point 24 °F
Humidity 88%
Rainfall 0.00 in
Snow Depth Not available.
UV 0 out of 12
Pollen .10 out of 12
Air Quality Not available.
Flu Activity Not available.
SPECI KROC 301221Z 32012G18KT 4SM -SN SCT024 OVC034 M02/M06 A2996 RMK AO2 P0000 T10221056

More Conditions Fewer Conditions

Pressure 29.96 in
Visibility 4.0 miles
Clouds Scattered Clouds 2400 ft
Overcast 3400 ft
Windchill 21 °F
Dew Point 24 °F
Humidity 88%
Rainfall 0.00 in
Snow Depth Not available.
UV 0 out of 12
Pollen .10 out of 12
Air Quality Not available.
Flu Activity Not available.
SPECI KROC 301221Z 32012G18KT 4SM -SN SCT024 OVC034 M02/M06 A2996 RMK AO2 P0000 T10221056

More Conditions Fewer Conditions

10-Day Weather Forecast

Almanac

Astronomy

Jan. 30, 2015 Rise Set
Actual Time
Civil Twilight
Nautical Twilight
Astronomical Twilight
Moon
Length of Visible Light
Length of Day
Tomorrow will be .
, % of the Moon is Illuminated

Today's Extremes

State Highs State Lows

Community

WunderPhotos

Upload Photos

1,791,738 photos uploaded!

WunderBlogs® & News

Nearby

Air Quality

  Air Quality AQ Index Pollutant
Not available.

Snow Depth

Station Depth Elevation

Earthquake Activity

City Distance Mag. Time & Date
Minimum magnitude displayed is 2.5.

Coastal Water Temperatures

Place Temperature

Nearby Weather Stations